Saint Jo, Texas
Current Conditions -  °F | °C
As of 11:35 AM on Monday 22 Dec 2014 (Local Time) from K0F2 Reporting Station
Broken Clouds Broken Clouds  
Wind Chill: 54°   Ceiling: 1200
Heat Index: 54°   Visibility: 10mi
Dew Point: 46°   Wind: 18mph
Humidity: 74%   Direction: 320°NW
Pressure: 29.62"   Gusts: NA
Location:  33.69°N, 97.52°W
Report Text: K0F2 221735Z AUTO 32016KT 10SM BKN012 BKN017 12/08 A2962 RMK AO2 T01230078
Loading
Personal Weather Stations






























Interactive Weather Map New forecast layout! Learn more

10-Day Weather Forecast

Advertisements
Track Severe Weather on mobile